createdAt,value
2018-09-03T00:01:40.036Z,20.87
2018-09-03T00:06:43.525Z,23.00
2018-09-03T00:11:46.992Z,28.67
2018-09-03T00:16:50.327Z,21.07
2018-09-03T00:21:54.152Z,19.27
2018-09-03T00:26:57.602Z,24.43
2018-09-03T00:32:06.361Z,19.40
2018-09-03T00:37:15.033Z,22.77
2018-09-03T00:42:24.208Z,22.73
2018-09-03T00:47:27.915Z,16.87
2018-09-03T00:52:31.584Z,18.57
2018-09-03T00:57:35.268Z,21.77
2018-09-03T01:02:38.975Z,21.60
2018-09-03T01:07:42.606Z,20.48
2018-09-03T01:12:46.310Z,18.27
2018-09-03T01:17:50.085Z,20.10
2018-09-03T01:22:53.938Z,20.80
2018-09-03T01:27:57.678Z,19.17
2018-09-03T01:33:01.161Z,24.30
2018-09-03T01:38:05.233Z,22.50
2018-09-03T01:43:08.937Z,19.93
2018-09-03T01:48:12.402Z,19.13
2018-09-03T01:53:15.825Z,20.73
2018-09-03T01:58:19.841Z,17.70
2018-09-03T02:03:23.584Z,23.53
2018-09-03T02:08:27.198Z,22.70
2018-09-03T02:13:31.573Z,19.20
2018-09-03T02:18:35.010Z,22.40
2018-09-03T02:23:38.790Z,19.37
2018-09-03T02:28:42.329Z,19.63
2018-09-03T02:33:45.657Z,18.40
2018-09-03T02:38:49.284Z,21.17
2018-09-03T02:43:52.600Z,17.73
2018-09-03T02:48:56.006Z,20.33
2018-09-03T02:53:59.520Z,20.13
2018-09-03T02:59:02.932Z,18.03
2018-09-03T03:04:06.472Z,23.70
2018-09-03T03:09:10.080Z,22.90
2018-09-03T03:14:13.653Z,21.47
2018-09-03T03:19:18.169Z,19.90
2018-09-03T03:24:21.687Z,24.57
2018-09-03T03:29:25.367Z,17.97
2018-09-03T03:34:28.967Z,20.70
2018-09-03T03:39:32.412Z,22.73
2018-09-03T03:44:35.817Z,17.83
2018-09-03T03:49:39.449Z,27.13
2018-09-03T03:54:43.025Z,24.73
2018-09-03T03:59:46.553Z,21.77
2018-09-03T04:04:50.235Z,23.20
2018-09-03T04:09:53.573Z,25.77
2018-09-03T04:14:57.074Z,23.23
2018-09-03T04:20:02.553Z,24.00
2018-09-03T04:25:06.056Z,24.30
2018-09-03T04:30:09.555Z,24.37
2018-09-03T04:35:12.978Z,24.13
2018-09-03T04:40:16.492Z,24.33
2018-09-03T04:45:19.895Z,24.07
2018-09-03T04:50:23.301Z,24.10
2018-09-03T04:55:26.788Z,26.43
2018-09-03T05:00:30.163Z,26.73
2018-09-03T05:05:33.534Z,25.50
2018-09-03T05:10:36.893Z,24.87
2018-09-03T05:15:40.191Z,24.63
2018-09-03T05:20:43.523Z,25.03
2018-09-03T05:25:50.491Z,27.20
2018-09-03T05:30:53.887Z,31.83
2018-09-03T05:35:57.377Z,31.53
2018-09-03T05:41:00.701Z,31.33
2018-09-03T05:46:04.125Z,34.20
2018-09-03T05:51:07.633Z,29.40
2018-09-03T05:56:11.112Z,32.33
2018-09-03T06:01:14.550Z,34.10
2018-09-03T06:06:18.070Z,33.27
2018-09-03T06:11:21.526Z,29.97
2018-09-03T06:16:25.298Z,26.53
2018-09-03T06:21:28.648Z,29.00
2018-09-03T06:26:32.469Z,28.63
2018-09-03T06:31:35.973Z,23.43
2018-09-03T06:36:39.827Z,26.57
2018-09-03T06:41:43.341Z,26.40
2018-09-03T06:46:46.689Z,23.93
2018-09-03T06:51:50.091Z,31.07
2018-09-03T06:56:53.541Z,27.83
2018-09-03T07:01:57.278Z,27.87
2018-09-03T07:07:00.680Z,24.17
2018-09-03T07:12:04.175Z,26.73
2018-09-03T07:17:07.528Z,27.67
2018-09-03T07:22:10.826Z,29.47
2018-09-03T07:27:14.384Z,23.63
2018-09-03T07:32:17.693Z,20.97
2018-09-03T07:37:21.186Z,27.93
2018-09-03T07:42:24.501Z,21.93
2018-09-03T07:47:27.916Z,23.83
2018-09-03T07:52:31.200Z,21.50
2018-09-03T07:57:35.436Z,27.13
2018-09-03T08:02:38.782Z,22.17
2018-09-03T08:07:42.211Z,21.27
2018-09-03T08:12:45.611Z,24.97
2018-09-03T08:17:48.962Z,24.60
2018-09-03T08:22:52.261Z,26.62
2018-09-03T08:27:55.909Z,20.03
2018-09-03T08:32:59.236Z,18.97
2018-09-03T08:38:02.626Z,22.33
2018-09-03T08:43:06.332Z,20.40
2018-09-03T08:48:14.180Z,20.70
2018-09-03T08:53:17.629Z,22.63
2018-09-03T08:58:21.136Z,22.00
2018-09-03T09:03:29.722Z,26.37
2018-09-03T09:08:33.212Z,20.23
2018-09-03T09:13:36.721Z,19.17
2018-09-03T09:18:40.457Z,20.47
2018-09-03T09:23:44.014Z,21.70
2018-09-03T09:28:47.615Z,20.03
2018-09-03T09:33:51.265Z,20.73
2018-09-03T09:38:54.615Z,17.83
2018-09-03T09:43:58.002Z,16.77
2018-09-03T09:49:01.411Z,17.07
2018-09-03T09:54:04.746Z,16.90
2018-09-03T09:59:08.253Z,11.93
2018-09-03T10:04:11.741Z,16.12
2018-09-03T10:09:15.209Z,14.70
2018-09-03T10:14:18.724Z,14.53
2018-09-03T10:19:22.104Z,11.40
2018-09-03T10:24:25.520Z,11.07
2018-09-03T10:29:28.864Z,10.70
2018-09-03T10:34:32.364Z,10.60
2018-09-03T10:39:35.853Z,10.60
2018-09-03T10:44:39.493Z,10.73
2018-09-03T10:49:43.242Z,10.73
2018-09-03T10:54:46.836Z,8.10
2018-09-03T10:59:50.501Z,10.83
2018-09-03T11:04:53.954Z,9.00
2018-09-03T11:09:57.517Z,15.03
2018-09-03T11:15:00.910Z,10.87
2018-09-03T11:20:06.856Z,15.70
2018-09-03T11:25:10.382Z,28.47
2018-09-03T11:30:13.799Z,15.55
2018-09-03T11:35:17.468Z,12.07
2018-09-03T11:40:21.610Z,13.57
2018-09-03T11:45:25.068Z,9.87
2018-09-03T11:50:28.230Z,8.50
2018-09-03T11:55:31.716Z,9.30
2018-09-03T12:00:35.166Z,8.10
2018-09-03T12:05:38.666Z,8.73
2018-09-03T12:10:41.964Z,9.53
2018-09-03T12:15:50.956Z,9.20
2018-09-03T12:20:54.439Z,12.20
2018-09-03T12:25:57.809Z,7.97
2018-09-03T12:31:01.152Z,10.43
2018-09-03T12:36:05.145Z,9.53
2018-09-03T12:41:08.756Z,9.53
2018-09-03T12:46:12.318Z,8.93
2018-09-03T12:51:15.998Z,5.53
2018-09-03T12:56:19.450Z,4.17
2018-09-03T13:01:23.006Z,3.30
2018-09-03T13:06:26.481Z,3.87
2018-09-03T13:11:29.969Z,3.33
2018-09-03T13:16:33.498Z,6.80
2018-09-03T13:21:36.960Z,7.17
2018-09-03T13:26:40.597Z,8.97
2018-09-03T13:31:44.091Z,8.03
2018-09-03T13:36:48.620Z,10.30
2018-09-03T13:41:52.215Z,9.47
2018-09-03T13:46:55.661Z,8.87
2018-09-03T13:51:59.391Z,9.17
2018-09-03T13:57:03.133Z,9.60
2018-09-03T14:02:06.685Z,11.47
2018-09-03T14:07:10.140Z,9.17
2018-09-03T14:12:13.668Z,11.40
2018-09-03T14:17:17.141Z,11.90
2018-09-03T14:22:20.813Z,12.07
2018-09-03T14:27:24.373Z,9.80
2018-09-03T14:32:27.799Z,13.67
2018-09-03T14:37:31.269Z,12.57
2018-09-03T14:42:34.914Z,12.87
2018-09-03T14:47:38.519Z,11.90
2018-09-03T14:52:42.083Z,13.97
2018-09-03T14:57:45.591Z,12.83
2018-09-03T15:02:48.927Z,15.03
2018-09-03T15:07:52.406Z,13.08
2018-09-03T15:12:56.097Z,12.97
2018-09-03T15:17:59.548Z,14.47
2018-09-03T15:23:03.120Z,15.70
2018-09-03T15:28:06.538Z,14.93
2018-09-03T15:33:10.097Z,13.80
2018-09-03T15:38:13.403Z,12.10
2018-09-03T15:43:16.806Z,11.13
2018-09-03T15:48:20.211Z,12.27
2018-09-03T15:53:24.446Z,12.73
2018-09-03T15:58:27.843Z,10.53
2018-09-03T16:03:31.293Z,11.80
2018-09-03T16:08:34.658Z,12.87
2018-09-03T16:13:38.035Z,11.83
2018-09-03T16:18:41.404Z,13.17
2018-09-03T16:23:44.904Z,10.93
2018-09-03T16:28:48.370Z,10.37
2018-09-03T16:33:51.904Z,10.27
2018-09-03T16:38:55.279Z,13.00
2018-09-03T16:43:58.646Z,15.20
2018-09-03T16:49:02.115Z,10.97
2018-09-03T16:54:05.497Z,11.10
2018-09-03T16:59:10.115Z,10.93
2018-09-03T17:04:13.829Z,13.27
2018-09-03T17:09:17.331Z,12.60
2018-09-03T17:14:20.728Z,14.20
2018-09-03T17:19:24.303Z,14.73
2018-09-03T17:24:27.839Z,12.63
2018-09-03T17:29:31.518Z,13.30
2018-09-03T17:34:34.870Z,13.80
2018-09-03T17:39:38.415Z,13.03
2018-09-03T17:44:42.195Z,10.50
2018-09-03T17:49:45.792Z,12.40
2018-09-03T17:54:49.304Z,12.63
2018-09-03T17:59:52.753Z,12.43
2018-09-03T18:04:56.516Z,12.43
2018-09-03T18:10:00.083Z,13.57
2018-09-03T18:15:03.824Z,12.70
2018-09-03T18:20:07.513Z,13.07
2018-09-03T18:25:11.071Z,12.27
2018-09-03T18:30:14.909Z,14.67
2018-09-03T18:35:18.451Z,15.50
2018-09-03T18:40:22.202Z,13.87
2018-09-03T18:45:26.100Z,12.00
2018-09-03T18:50:29.673Z,14.47
2018-09-03T18:55:33.226Z,12.07
2018-09-03T19:00:36.711Z,12.07
2018-09-03T19:05:40.292Z,13.00
2018-09-03T19:10:43.938Z,14.63
2018-09-03T19:15:47.618Z,12.87
2018-09-03T19:20:51.254Z,14.57
2018-09-03T19:25:54.893Z,13.77
2018-09-03T19:30:58.440Z,13.00
2018-09-03T19:36:01.648Z,12.65
2018-09-03T19:41:05.201Z,12.90
2018-09-03T19:46:08.599Z,13.43
2018-09-03T19:51:12.167Z,12.80
2018-09-03T19:56:15.641Z,11.97
2018-09-03T20:01:19.184Z,11.83
2018-09-03T20:06:22.995Z,11.30
2018-09-03T20:11:26.498Z,11.63
2018-09-03T20:16:30.326Z,9.95
2018-09-03T20:21:34.109Z,11.67
2018-09-03T20:26:37.712Z,11.20
2018-09-03T20:31:41.337Z,6.20
2018-09-03T20:36:44.937Z,10.27
2018-09-03T20:41:48.362Z,9.33
2018-09-03T20:46:51.939Z,10.70
2018-09-03T20:51:55.509Z,9.43
2018-09-03T20:56:58.926Z,10.90
2018-09-03T21:02:02.466Z,8.90
2018-09-03T21:07:06.049Z,10.00
2018-09-03T21:12:09.560Z,9.93
2018-09-03T21:17:13.138Z,9.03
2018-09-03T21:22:16.763Z,10.30
2018-09-03T21:27:20.339Z,11.30
2018-09-03T21:32:23.686Z,8.77
2018-09-03T21:37:27.261Z,11.60
2018-09-03T21:42:30.728Z,13.53
2018-09-03T21:47:34.183Z,9.37
2018-09-03T21:52:38.185Z,10.77
2018-09-03T21:57:42.182Z,11.20
2018-09-03T22:02:46.157Z,10.27
2018-09-03T22:07:49.545Z,11.37
2018-09-03T22:12:53.064Z,10.60
2018-09-03T22:17:56.569Z,14.10
2018-09-03T22:23:00.103Z,12.00
2018-09-03T22:28:03.429Z,10.67
2018-09-03T22:33:06.860Z,11.20
2018-09-03T22:38:10.237Z,15.53
2018-09-03T22:43:13.676Z,12.70
2018-09-03T22:48:17.070Z,19.17
2018-09-03T22:53:20.402Z,11.07
2018-09-03T22:58:23.860Z,12.00
2018-09-03T23:03:27.224Z,15.43
2018-09-03T23:08:30.687Z,13.43
2018-09-03T23:13:34.060Z,12.33
2018-09-03T23:18:37.409Z,13.07
2018-09-03T23:23:40.773Z,14.90
2018-09-03T23:28:44.142Z,15.80
2018-09-03T23:33:47.644Z,16.07
2018-09-03T23:38:50.797Z,14.53
2018-09-03T23:43:54.324Z,14.83
2018-09-03T23:48:57.720Z,15.87
2018-09-03T23:54:01.124Z,12.77
2018-09-03T23:59:04.618Z,20.07
